sensor_id;sensor_type;location;lat;lon;timestamp;pressure;altitude;pressure_sealevel;temperature;humidity
63493;BME280;49638;47.526;10.028;2023-05-24T00:02:13;91757.75;;;11.63;100.00
63493;BME280;49638;47.526;10.028;2023-05-24T00:05:14;91746.00;;;11.53;100.00
63493;BME280;49638;47.526;10.028;2023-05-24T00:08:15;91758.28;;;11.65;100.00
63493;BME280;49638;47.526;10.028;2023-05-24T00:11:15;91745.78;;;11.60;100.00
63493;BME280;49638;47.526;10.028;2023-05-24T00:14:16;91731.56;;;11.66;100.00
63493;BME280;49638;47.526;10.028;2023-05-24T00:17:16;91732.38;;;11.67;100.00
63493;BME280;49638;47.526;10.028;2023-05-24T00:20:16;91731.56;;;11.66;100.00
63493;BME280;49638;47.526;10.028;2023-05-24T00:23:19;91732.63;;;11.65;100.00
63493;BME280;49638;47.526;10.028;2023-05-24T00:26:19;91717.16;;;11.57;100.00
63493;BME280;49638;47.526;10.028;2023-05-24T00:29:20;91718.75;;;11.58;100.00
63493;BME280;49638;47.526;10.028;2023-05-24T00:32:20;91730.47;;;11.62;100.00
63493;BME280;49638;47.526;10.028;2023-05-24T00:35:20;91731.50;;;11.61;100.00
63493;BME280;49638;47.526;10.028;2023-05-24T00:38:22;91729.34;;;11.58;100.00
63493;BME280;49638;47.526;10.028;2023-05-24T00:41:22;91726.16;;;11.56;100.00
63493;BME280;49638;47.526;10.028;2023-05-24T00:44:23;91730.19;;;11.58;100.00
63493;BME280;49638;47.526;10.028;2023-05-24T00:47:23;91746.28;;;11.57;100.00
63493;BME280;49638;47.526;10.028;2023-05-24T00:50:24;91722.97;;;11.54;100.00
63493;BME280;49638;47.526;10.028;2023-05-24T00:53:24;91721.31;;;11.48;100.00
63493;BME280;49638;47.526;10.028;2023-05-24T00:56:24;91737.25;;;11.53;100.00
63493;BME280;49638;47.526;10.028;2023-05-24T00:59:26;91745.19;;;11.53;100.00
63493;BME280;49638;47.526;10.028;2023-05-24T01:02:26;91737.75;;;11.50;100.00
63493;BME280;49638;47.526;10.028;2023-05-24T01:05:26;91732.94;;;11.47;100.00
63493;BME280;49638;47.526;10.028;2023-05-24T01:18:04;91737.44;;;11.46;100.00
63493;BME280;49638;47.526;10.028;2023-05-24T01:21:30;91734.00;;;11.46;100.00
63493;BME280;49638;47.526;10.028;2023-05-24T01:27:57;91716.91;;;11.31;100.00
63493;BME280;49638;47.526;10.028;2023-05-24T01:30:58;91719.28;;;11.33;100.00
63493;BME280;49638;47.526;10.028;2023-05-24T01:33:59;91722.44;;;11.30;100.00
63493;BME280;49638;47.526;10.028;2023-05-24T01:37:00;91729.00;;;11.27;100.00
63493;BME280;49638;47.526;10.028;2023-05-24T01:40:00;91698.19;;;11.16;100.00
63493;BME280;49638;47.526;10.028;2023-05-24T01:43:06;91720.47;;;11.20;100.00
63493;BME280;49638;47.526;10.028;2023-05-24T01:46:34;91710.13;;;11.19;100.00
63493;BME280;49638;47.526;10.028;2023-05-24T01:49:43;91712.22;;;11.17;100.00
63493;BME280;49638;47.526;10.028;2023-05-24T01:52:45;91722.06;;;11.21;100.00
63493;BME280;49638;47.526;10.028;2023-05-24T01:55:52;91716.78;;;11.21;100.00
63493;BME280;49638;47.526;10.028;2023-05-24T01:58:53;91717.59;;;11.22;100.00
63493;BME280;49638;47.526;10.028;2023-05-24T02:01:54;91710.38;;;11.17;100.00
63493;BME280;49638;47.526;10.028;2023-05-24T02:04:54;91720.47;;;11.20;100.00
63493;BME280;49638;47.526;10.028;2023-05-24T02:07:55;91714.88;;;11.17;100.00
63493;BME280;49638;47.526;10.028;2023-05-24T02:10:55;91708.72;;;11.11;100.00
63493;BME280;49638;47.526;10.028;2023-05-24T02:13:55;91716.19;;;11.14;100.00
63493;BME280;49638;47.526;10.028;2023-05-24T02:16:56;91720.63;;;11.13;100.00
63493;BME280;49638;47.526;10.028;2023-05-24T02:20:02;91712.69;;;11.13;100.00
63493;BME280;49638;47.526;10.028;2023-05-24T02:23:03;91710.88;;;11.14;100.00
63493;BME280;49638;47.526;10.028;2023-05-24T02:26:03;91707.69;;;11.12;100.00
63493;BME280;49638;47.526;10.028;2023-05-24T02:29:03;91710.81;;;11.09;100.00
63493;BME280;49638;47.526;10.028;2023-05-24T02:32:04;91701.28;;;11.08;100.00
63493;BME280;49638;47.526;10.028;2023-05-24T02:35:05;91706.75;;;11.01;100.00
63493;BME280;49638;47.526;10.028;2023-05-24T02:38:05;91707.84;;;11.05;100.00
63493;BME280;49638;47.526;10.028;2023-05-24T02:41:05;91703.06;;;11.02;100.00
63493;BME280;49638;47.526;10.028;2023-05-24T02:44:06;91711.78;;;11.03;100.00
63493;BME280;49638;47.526;10.028;2023-05-24T02:47:06;91713.38;;;11.04;100.00
63493;BME280;49638;47.526;10.028;2023-05-24T02:50:07;91702.00;;;11.03;100.00
63493;BME280;49638;47.526;10.028;2023-05-24T02:53:07;91693.75;;;11.00;100.00
63493;BME280;49638;47.526;10.028;2023-05-24T02:56:08;91694.88;;;11.04;100.00
63493;BME280;49638;47.526;10.028;2023-05-24T02:59:08;91700.97;;;11.04;100.00
63493;BME280;49638;47.526;10.028;2023-05-24T03:02:08;91698.56;;;11.03;100.00
63493;BME280;49638;47.526;10.028;2023-05-24T03:05:09;91691.13;;;11.00;100.00
63493;BME280;49638;47.526;10.028;2023-05-24T03:08:09;91683.63;;;10.92;100.00
63493;BME280;49638;47.526;10.028;2023-05-24T03:11:09;91697.47;;;10.99;100.00
63493;BME280;49638;47.526;10.028;2023-05-24T03:14:10;91695.31;;;10.96;100.00
63493;BME280;49638;47.526;10.028;2023-05-24T03:17:10;91696.88;;;10.97;100.00
63493;BME280;49638;47.526;10.028;2023-05-24T03:20:10;91693.63;;;10.89;100.00
63493;BME280;49638;47.526;10.028;2023-05-24T03:23:11;91692.03;;;10.88;100.00
63493;BME280;49638;47.526;10.028;2023-05-24T03:26:11;91702.66;;;10.94;100.00
63493;BME280;49638;47.526;10.028;2023-05-24T03:29:14;91704.78;;;10.92;100.00
63493;BME280;49638;47.526;10.028;2023-05-24T03:32:15;91687.72;;;10.82;100.00
63493;BME280;49638;47.526;10.028;2023-05-24T03:35:15;91697.59;;;10.87;100.00
63493;BME280;49638;47.526;10.028;2023-05-24T03:38:15;91700.94;;;10.82;100.00
63493;BME280;49638;47.526;10.028;2023-05-24T03:41:15;91699.28;;;10.76;100.00
63493;BME280;49638;47.526;10.028;2023-05-24T03:44:16;91702.97;;;10.75;100.00
63493;BME280;49638;47.526;10.028;2023-05-24T03:47:16;91697.13;;;10.73;100.00
63493;BME280;49638;47.526;10.028;2023-05-24T03:50:16;91703.16;;;10.69;100.00
63493;BME280;49638;47.526;10.028;2023-05-24T03:53:17;91699.97;;;10.67;100.00
63493;BME280;49638;47.526;10.028;2023-05-24T03:56:17;91705.16;;;10.61;100.00
63493;BME280;49638;47.526;10.028;2023-05-24T03:59:17;91712.28;;;10.61;100.00
63493;BME280;49638;47.526;10.028;2023-05-24T04:02:18;91702.06;;;10.48;100.00
63493;BME280;49638;47.526;10.028;2023-05-24T04:05:18;91712.69;;;10.53;100.00
63493;BME280;49638;47.526;10.028;2023-05-24T04:08:18;91706.06;;;10.50;100.00
63493;BME280;49638;47.526;10.028;2023-05-24T04:11:18;91708.63;;;10.45;100.00
63493;BME280;49638;47.526;10.028;2023-05-24T04:14:21;91717.66;;;10.49;100.00
63493;BME280;49638;47.526;10.028;2023-05-24T04:17:21;91714.47;;;10.47;100.00
63493;BME280;49638;47.526;10.028;2023-05-24T04:20:23;91706.47;;;10.42;100.00
63493;BME280;49638;47.526;10.028;2023-05-24T04:23:24;91717.91;;;10.48;100.00
63493;BME280;49638;47.526;10.028;2023-05-24T04:26:24;91704.63;;;10.42;100.00
63493;BME280;49638;47.526;10.028;2023-05-24T04:29:25;91700.88;;;10.38;100.00
63493;BME280;49638;47.526;10.028;2023-05-24T04:32:26;91712.06;;;10.46;100.00
63493;BME280;49638;47.526;10.028;2023-05-24T04:35:29;91712.53;;;10.42;100.00
63493;BME280;49638;47.526;10.028;2023-05-24T04:38:29;91705.66;;;10.41;100.00
63493;BME280;49638;47.526;10.028;2023-05-24T04:41:31;91708.88;;;10.44;100.00
63493;BME280;49638;47.526;10.028;2023-05-24T04:44:32;91706.78;;;10.46;100.00
63493;BME280;49638;47.526;10.028;2023-05-24T04:47:32;91702.53;;;10.45;100.00
63493;BME280;49638;47.526;10.028;2023-05-24T04:50:32;91703.59;;;10.44;100.00
63493;BME280;49638;47.526;10.028;2023-05-24T04:53:34;91692.88;;;10.33;100.00
63493;BME280;49638;47.526;10.028;2023-05-24T04:56:35;91711.53;;;10.44;100.00
63493;BME280;49638;47.526;10.028;2023-05-24T04:59:37;91717.59;;;10.44;100.00
63493;BME280;49638;47.526;10.028;2023-05-24T05:02:37;91722.88;;;10.44;100.00
63493;BME280;49638;47.526;10.028;2023-05-24T05:05:37;91712.06;;;10.46;100.00
63493;BME280;49638;47.526;10.028;2023-05-24T05:08:38;91713.69;;;10.47;100.00
63493;BME280;49638;47.526;10.028;2023-05-24T05:11:38;91716.56;;;10.45;100.00
63493;BME280;49638;47.526;10.028;2023-05-24T05:14:39;91707.19;;;10.37;100.00
63493;BME280;49638;47.526;10.028;2023-05-24T05:17:39;91707.09;;;10.32;100.00
63493;BME280;49638;47.526;10.028;2023-05-24T05:20:39;91715.34;;;10.36;100.00
63493;BME280;49638;47.526;10.028;2023-05-24T05:23:40;91714.56;;;10.35;100.00
63493;BME280;49638;47.526;10.028;2023-05-24T05:26:40;91721.16;;;10.33;100.00
63493;BME280;49638;47.526;10.028;2023-05-24T05:29:40;91713.22;;;10.33;100.00
63493;BME280;49638;47.526;10.028;2023-05-24T05:32:41;91723.53;;;10.34;100.00
63493;BME280;49638;47.526;10.028;2023-05-24T05:35:41;91710.75;;;10.26;100.00
63493;BME280;49638;47.526;10.028;2023-05-24T05:38:42;91713.91;;;10.28;100.00
63493;BME280;49638;47.526;10.028;2023-05-24T05:41:42;91718.50;;;10.33;100.00
63493;BME280;49638;47.526;10.028;2023-05-24T05:44:44;91718.72;;;10.31;100.00
63493;BME280;49638;47.526;10.028;2023-05-24T05:47:45;91710.75;;;10.26;100.00
63493;BME280;49638;47.526;10.028;2023-05-24T05:50:45;91716.41;;;10.35;100.00
63493;BME280;49638;47.526;10.028;2023-05-24T05:53:45;91710.06;;;10.36;100.00
63493;BME280;49638;47.526;10.028;2023-05-24T05:56:46;91704.56;;;10.37;100.00
63493;BME280;49638;47.526;10.028;2023-05-24T05:59:47;91706.25;;;10.44;100.00
63493;BME280;49638;47.526;10.028;2023-05-24T06:02:47;91714.69;;;10.46;100.00
63493;BME280;49638;47.526;10.028;2023-05-24T06:05:47;91719.75;;;10.47;100.00
63493;BME280;49638;47.526;10.028;2023-05-24T06:08:47;91717.13;;;10.47;100.00
63493;BME280;49638;47.526;10.028;2023-05-24T06:11:48;91726.91;;;10.47;100.00
63493;BME280;49638;47.526;10.028;2023-05-24T06:14:48;91734.56;;;10.48;100.00
63493;BME280;49638;47.526;10.028;2023-05-24T06:17:49;91728.91;;;10.39;100.00
63493;BME280;49638;47.526;10.028;2023-05-24T06:20:51;91751.22;;;10.49;100.00
63493;BME280;49638;47.526;10.028;2023-05-24T06:23:52;91746.88;;;10.42;100.00
63493;BME280;49638;47.526;10.028;2023-05-24T06:26:52;91753.78;;;10.44;100.00
63493;BME280;49638;47.526;10.028;2023-05-24T06:29:52;91739.38;;;10.34;100.00
63493;BME280;49638;47.526;10.028;2023-05-24T06:32:52;91755.31;;;10.39;100.00
63493;BME280;49638;47.526;10.028;2023-05-24T06:35:53;91759.25;;;10.37;100.00
63493;BME280;49638;47.526;10.028;2023-05-24T06:38:53;91758.19;;;10.38;100.00
63493;BME280;49638;47.526;10.028;2023-05-24T06:41:53;91756.34;;;10.38;100.00
63493;BME280;49638;47.526;10.028;2023-05-24T06:44:53;91764.75;;;10.35;100.00
63493;BME280;49638;47.526;10.028;2023-05-24T06:47:54;91761.00;;;10.31;100.00
63493;BME280;49638;47.526;10.028;2023-05-24T06:50:54;91767.16;;;10.37;100.00
63493;BME280;49638;47.526;10.028;2023-05-24T06:53:54;91756.50;;;10.32;100.00
63493;BME280;49638;47.526;10.028;2023-05-24T06:56:55;91769.56;;;10.38;100.00
63493;BME280;49638;47.526;10.028;2023-05-24T06:59:55;91765.63;;;10.41;100.00
63493;BME280;49638;47.526;10.028;2023-05-24T07:02:56;91769.16;;;10.47;100.00
63493;BME280;49638;47.526;10.028;2023-05-24T07:05:56;91764.09;;;10.45;100.00
63493;BME280;49638;47.526;10.028;2023-05-24T07:08:57;91775.09;;;10.54;100.00
63493;BME280;49638;47.526;10.028;2023-05-24T07:11:57;91765.63;;;10.58;100.00
63493;BME280;49638;47.526;10.028;2023-05-24T07:14:57;91756.81;;;10.52;100.00
63493;BME280;49638;47.526;10.028;2023-05-24T07:17:58;91764.59;;;10.59;100.00
63493;BME280;49638;47.526;10.028;2023-05-24T07:20:59;91756.97;;;10.62;100.00
63493;BME280;49638;47.526;10.028;2023-05-24T07:24:00;91755.13;;;10.63;100.00
63493;BME280;49638;47.526;10.028;2023-05-24T07:27:00;91763.06;;;10.63;100.00
63493;BME280;49638;47.526;10.028;2023-05-24T07:30:02;91756.16;;;10.62;100.00
63493;BME280;49638;47.526;10.028;2023-05-24T07:33:02;91762.56;;;10.66;100.00
63493;BME280;49638;47.526;10.028;2023-05-24T07:36:06;91774.28;;;10.70;100.00
63493;BME280;49638;47.526;10.028;2023-05-24T07:39:07;91781.16;;;10.71;100.00
63493;BME280;49638;47.526;10.028;2023-05-24T07:42:09;91767.84;;;10.66;100.00
63493;BME280;49638;47.526;10.028;2023-05-24T07:45:09;91772.75;;;10.74;100.00
63493;BME280;49638;47.526;10.028;2023-05-24T07:48:10;91783.88;;;10.76;100.00
63493;BME280;49638;47.526;10.028;2023-05-24T07:51:10;91776.75;;;10.77;100.00
63493;BME280;49638;47.526;10.028;2023-05-24T07:54:11;91777.88;;;10.81;100.00
63493;BME280;49638;47.526;10.028;2023-05-24T07:57:11;91768.00;;;10.76;100.00
63493;BME280;49638;47.526;10.028;2023-05-24T08:00:12;91785.06;;;10.85;100.00
63493;BME280;49638;47.526;10.028;2023-05-24T08:03:15;91764.66;;;10.81;100.00
63493;BME280;49638;47.526;10.028;2023-05-24T08:06:16;91777.38;;;10.84;100.00
63493;BME280;49638;47.526;10.028;2023-05-24T08:09:17;91778.25;;;10.89;100.00
63493;BME280;49638;47.526;10.028;2023-05-24T08:12:17;91770.56;;;10.88;100.00
63493;BME280;49638;47.526;10.028;2023-05-24T08:15:17;91777.75;;;10.93;100.00
63493;BME280;49638;47.526;10.028;2023-05-24T08:18:18;91778.06;;;10.96;100.00
63493;BME280;49638;47.526;10.028;2023-05-24T08:21:18;91777.34;;;11.01;100.00
63493;BME280;49638;47.526;10.028;2023-05-24T08:24:19;91781.66;;;11.07;100.00
63493;BME280;49638;47.526;10.028;2023-05-24T08:27:19;91780.69;;;11.13;100.00
63493;BME280;49638;47.526;10.028;2023-05-24T08:30:20;91782.34;;;11.19;100.00
63493;BME280;49638;47.526;10.028;2023-05-24T08:33:20;91787.94;;;11.23;100.00
63493;BME280;49638;47.526;10.028;2023-05-24T08:36:24;91797.25;;;11.25;100.00
63493;BME280;49638;47.526;10.028;2023-05-24T08:39:24;91791.00;;;11.31;100.00
63493;BME280;49638;47.526;10.028;2023-05-24T08:42:26;91792.56;;;11.32;100.00
63493;BME280;49638;47.526;10.028;2023-05-24T08:45:31;91789.97;;;11.37;100.00
63493;BME280;49638;47.526;10.028;2023-05-24T08:48:34;91790.84;;;11.43;100.00
63493;BME280;49638;47.526;10.028;2023-05-24T08:51:43;91795.66;;;11.46;100.00
63493;BME280;49638;47.526;10.028;2023-05-24T08:54:44;91803.13;;;11.49;100.00
63493;BME280;49638;47.526;10.028;2023-05-24T08:57:45;91802.06;;;11.50;100.00
63493;BME280;49638;47.526;10.028;2023-05-24T09:00:45;91792.53;;;11.49;100.00
63493;BME280;49638;47.526;10.028;2023-05-24T09:03:46;91789.13;;;11.54;100.00
63493;BME280;49638;47.526;10.028;2023-05-24T09:06:47;91799.03;;;11.64;100.00
63493;BME280;49638;47.526;10.028;2023-05-24T09:09:52;91787.16;;;11.66;100.00
63493;BME280;49638;47.526;10.028;2023-05-24T09:12:56;91800.81;;;11.80;100.00
63493;BME280;49638;47.526;10.028;2023-05-24T09:16:00;91793.66;;;11.80;100.00
63493;BME280;49638;47.526;10.028;2023-05-24T09:19:01;91790.53;;;11.83;100.00
63493;BME280;49638;47.526;10.028;2023-05-24T09:22:02;91791.75;;;11.98;100.00
63493;BME280;49638;47.526;10.028;2023-05-24T09:25:07;91802.22;;;12.10;100.00
63493;BME280;49638;47.526;10.028;2023-05-24T09:28:08;91803.34;;;12.19;100.00
63493;BME280;49638;47.526;10.028;2023-05-24T09:31:11;91802.63;;;12.23;100.00
63493;BME280;49638;47.526;10.028;2023-05-24T09:34:14;91806.88;;;12.24;100.00
63493;BME280;49638;47.526;10.028;2023-05-24T09:37:17;91804.25;;;12.29;100.00
63493;BME280;49638;47.526;10.028;2023-05-24T09:40:18;91808.03;;;12.34;100.00
63493;BME280;49638;47.526;10.028;2023-05-24T09:43:19;91801.69;;;12.40;100.00
63493;BME280;49638;47.526;10.028;2023-05-24T09:46:19;91800.97;;;12.44;100.00
63493;BME280;49638;47.526;10.028;2023-05-24T09:49:20;91810.78;;;12.49;100.00
63493;BME280;49638;47.526;10.028;2023-05-24T09:52:21;91792.66;;;12.36;100.00
63493;BME280;49638;47.526;10.028;2023-05-24T09:55:21;91816.09;;;12.49;99.70
63493;BME280;49638;47.526;10.028;2023-05-24T09:58:28;91803.81;;;12.38;98.69
63493;BME280;49638;47.526;10.028;2023-05-24T10:01:28;91817.09;;;12.43;99.56
63493;BME280;49638;47.526;10.028;2023-05-24T10:04:33;91814.06;;;12.29;99.13
63493;BME280;49638;47.526;10.028;2023-05-24T10:07:34;91812.09;;;12.19;99.45
63493;BME280;49638;47.526;10.028;2023-05-24T10:10:35;91811.50;;;12.12;98.69
63493;BME280;49638;47.526;10.028;2023-05-24T10:13:35;91813.13;;;12.13;98.79
63493;BME280;49638;47.526;10.028;2023-05-24T10:16:35;91815.09;;;12.01;98.68
63493;BME280;49638;47.526;10.028;2023-05-24T10:19:37;91809.25;;;11.99;98.77
63493;BME280;49638;47.526;10.028;2023-05-24T10:22:41;91819.53;;;11.95;99.00
63493;BME280;49638;47.526;10.028;2023-05-24T10:25:53;91825.66;;;11.96;98.79
63493;BME280;49638;47.526;10.028;2023-05-24T10:28:59;91824.03;;;11.95;99.45
63493;BME280;49638;47.526;10.028;2023-05-24T10:32:02;91830.66;;;11.92;98.95
63493;BME280;49638;47.526;10.028;2023-05-24T10:35:05;91824.22;;;11.88;98.84
63493;BME280;49638;47.526;10.028;2023-05-24T10:38:06;91822.81;;;11.80;98.34
63493;BME280;49638;47.526;10.028;2023-05-24T10:41:07;91813.69;;;11.71;98.35
63493;BME280;49638;47.526;10.028;2023-05-24T10:44:12;91800.31;;;11.61;98.17
63493;BME280;49638;47.526;10.028;2023-05-24T10:47:13;91814.75;;;11.70;98.07
63493;BME280;49638;47.526;10.028;2023-05-24T10:50:18;91813.34;;;11.63;97.80
63493;BME280;49638;47.526;10.028;2023-05-24T10:53:21;91816.81;;;11.68;98.02
63493;BME280;49638;47.526;10.028;2023-05-24T10:56:21;91819.25;;;11.70;97.38
63493;BME280;49638;47.526;10.028;2023-05-24T10:59:38;91807.72;;;11.59;94.98
63493;BME280;49638;47.526;10.028;2023-05-24T11:02:38;91817.84;;;11.62;97.34
63493;BME280;49638;47.526;10.028;2023-05-24T11:08:46;91828.59;;;11.55;96.46
63493;BME280;49638;47.526;10.028;2023-05-24T11:11:49;91829.09;;;11.52;96.49
63493;BME280;49638;47.526;10.028;2023-05-24T11:14:51;91830.38;;;11.50;96.43
63493;BME280;49638;47.526;10.028;2023-05-24T11:21:08;91831.91;;;11.46;95.99
63493;BME280;49638;47.526;10.028;2023-05-24T11:24:08;91821.94;;;11.53;96.13
63493;BME280;49638;47.526;10.028;2023-05-24T11:27:10;91820.59;;;11.50;95.20
63493;BME280;49638;47.526;10.028;2023-05-24T11:30:11;91819.59;;;11.56;95.66
63493;BME280;49638;47.526;10.028;2023-05-24T11:33:21;91820.72;;;11.60;94.80
63493;BME280;49638;47.526;10.028;2023-05-24T11:36:22;91813.50;;;11.56;95.45
63493;BME280;49638;47.526;10.028;2023-05-24T11:39:22;91817.84;;;11.62;95.13
63493;BME280;49638;47.526;10.028;2023-05-24T11:42:27;91816.22;;;11.61;94.96
63493;BME280;49638;47.526;10.028;2023-05-24T11:45:27;91822.31;;;11.61;94.90
63493;BME280;49638;47.526;10.028;2023-05-24T11:48:28;91807.16;;;11.57;94.89
63493;BME280;49638;47.526;10.028;2023-05-24T11:51:31;91805.31;;;11.57;94.89
63493;BME280;49638;47.526;10.028;2023-05-24T11:54:32;91824.34;;;11.76;95.05
63493;BME280;49638;47.526;10.028;2023-05-24T11:57:37;91805.63;;;11.83;94.63
63493;BME280;49638;47.526;10.028;2023-05-24T12:00:39;91814.38;;;11.83;94.87
63493;BME280;49638;47.526;10.028;2023-05-24T12:03:39;91798.72;;;12.04;94.60
63493;BME280;49638;47.526;10.028;2023-05-24T12:06:42;91806.50;;;12.16;93.95
63493;BME280;49638;47.526;10.028;2023-05-24T12:09:43;91806.88;;;12.24;93.96
63493;BME280;49638;47.526;10.028;2023-05-24T12:12:44;91797.13;;;12.30;93.37
63493;BME280;49638;47.526;10.028;2023-05-24T12:15:44;91813.41;;;12.44;92.94
63493;BME280;49638;47.526;10.028;2023-05-24T12:18:44;91798.53;;;12.43;92.70
63493;BME280;49638;47.526;10.028;2023-05-24T12:21:48;91810.06;;;12.53;91.30
63493;BME280;49638;47.526;10.028;2023-05-24T12:24:48;91813.22;;;12.50;88.63
63493;BME280;49638;47.526;10.028;2023-05-24T12:27:52;91821.41;;;12.49;92.16
63493;BME280;49638;47.526;10.028;2023-05-24T12:30:54;91809.13;;;12.38;91.82
63493;BME280;49638;47.526;10.028;2023-05-24T12:33:55;91807.44;;;12.26;91.81
63493;BME280;49638;47.526;10.028;2023-05-24T12:36:55;91808.66;;;12.19;91.54
63493;BME280;49638;47.526;10.028;2023-05-24T12:39:55;91810.22;;;12.15;91.82
63493;BME280;49638;47.526;10.028;2023-05-24T12:42:56;91820.78;;;12.10;91.65
63493;BME280;49638;47.526;10.028;2023-05-24T12:45:57;91812.56;;;12.11;91.91
63493;BME280;49638;47.526;10.028;2023-05-24T12:48:57;91808.84;;;12.12;92.36
63493;BME280;49638;47.526;10.028;2023-05-24T12:52:01;91796.78;;;12.21;92.18
63493;BME280;49638;47.526;10.028;2023-05-24T12:55:02;91799.91;;;12.18;91.73
63493;BME280;49638;47.526;10.028;2023-05-24T12:58:02;91801.84;;;12.23;91.82
63493;BME280;49638;47.526;10.028;2023-05-24T13:01:05;91816.72;;;12.29;91.79
63493;BME280;49638;47.526;10.028;2023-05-24T13:04:06;91814.75;;;12.19;91.23
63493;BME280;49638;47.526;10.028;2023-05-24T13:07:06;91819.53;;;12.17;91.27
63493;BME280;49638;47.526;10.028;2023-05-24T13:10:06;91810.78;;;12.17;91.28
63493;BME280;49638;47.526;10.028;2023-05-24T13:13:07;91803.91;;;12.21;91.46
63493;BME280;49638;47.526;10.028;2023-05-24T13:16:07;91802.66;;;12.28;91.06
63493;BME280;49638;47.526;10.028;2023-05-24T13:19:09;91805.41;;;12.39;91.13
63493;BME280;49638;47.526;10.028;2023-05-24T13:22:09;91807.00;;;12.40;90.73
63493;BME280;49638;47.526;10.028;2023-05-24T13:25:09;91810.41;;;12.35;90.60
63493;BME280;49638;47.526;10.028;2023-05-24T13:28:10;91798.94;;;12.29;91.07
63493;BME280;49638;47.526;10.028;2023-05-24T13:31:10;91810.00;;;12.21;90.52
63493;BME280;49638;47.526;10.028;2023-05-24T13:34:10;91801.94;;;12.06;90.61
63493;BME280;49638;47.526;10.028;2023-05-24T13:37:11;91816.47;;;12.03;90.71
63493;BME280;49638;47.526;10.028;2023-05-24T13:40:11;91807.56;;;11.88;90.60
63493;BME280;49638;47.526;10.028;2023-05-24T13:43:12;91800.56;;;11.81;91.15
63493;BME280;49638;47.526;10.028;2023-05-24T13:46:12;91798.75;;;11.82;91.50
63493;BME280;49638;47.526;10.028;2023-05-24T13:49:13;91814.44;;;11.89;92.08
63493;BME280;49638;47.526;10.028;2023-05-24T13:52:13;91812.34;;;11.91;92.10
63493;BME280;49638;47.526;10.028;2023-05-24T13:55:14;91803.78;;;11.83;91.82
63493;BME280;49638;47.526;10.028;2023-05-24T13:58:14;91815.06;;;11.96;91.85
63493;BME280;49638;47.526;10.028;2023-05-24T14:01:14;91800.69;;;11.92;91.54
63493;BME280;49638;47.526;10.028;2023-05-24T14:04:15;91800.22;;;11.95;92.10
63493;BME280;49638;47.526;10.028;2023-05-24T14:07:15;91812.22;;;12.02;91.37
63493;BME280;49638;47.526;10.028;2023-05-24T14:10:16;91804.03;;;12.04;91.18
63493;BME280;49638;47.526;10.028;2023-05-24T14:13:16;91790.28;;;12.07;90.92
63493;BME280;49638;47.526;10.028;2023-05-24T14:16:17;91797.28;;;12.18;90.84
63493;BME280;49638;47.526;10.028;2023-05-24T14:19:17;91790.41;;;12.22;90.61
63493;BME280;49638;47.526;10.028;2023-05-24T14:22:18;91784.75;;;12.41;90.06
63493;BME280;49638;47.526;10.028;2023-05-24T14:25:19;91790.97;;;12.57;89.61
63493;BME280;49638;47.526;10.028;2023-05-24T14:28:19;91784.44;;;12.64;89.26
63493;BME280;49638;47.526;10.028;2023-05-24T14:31:19;91785.28;;;12.75;89.31
63493;BME280;49638;47.526;10.028;2023-05-24T14:34:20;91786.16;;;12.86;89.07
63493;BME280;49638;47.526;10.028;2023-05-24T14:37:20;91781.13;;;12.84;89.45
63493;BME280;49638;47.526;10.028;2023-05-24T14:40:21;91786.72;;;12.88;89.44
63493;BME280;49638;47.526;10.028;2023-05-24T14:43:21;91792.09;;;12.98;88.94
63493;BME280;49638;47.526;10.028;2023-05-24T14:46:21;91783.03;;;12.94;88.95
63493;BME280;49638;47.526;10.028;2023-05-24T14:49:22;91781.19;;;12.94;88.90
63493;BME280;49638;47.526;10.028;2023-05-24T14:52:22;91789.94;;;12.95;88.56
63493;BME280;49638;47.526;10.028;2023-05-24T14:55:22;91786.00;;;13.02;88.24
63493;BME280;49638;47.526;10.028;2023-05-24T14:58:23;91780.44;;;13.04;87.89
63493;BME280;49638;47.526;10.028;2023-05-24T15:01:23;91781.59;;;13.18;87.38
63493;BME280;49638;47.526;10.028;2023-05-24T15:04:23;91776.59;;;13.22;87.38
63493;BME280;49638;47.526;10.028;2023-05-24T15:07:23;91775.84;;;13.27;86.86
63493;BME280;49638;47.526;10.028;2023-05-24T15:10:24;91767.09;;;13.31;87.15
63493;BME280;49638;47.526;10.028;2023-05-24T15:13:24;91764.25;;;13.43;86.68
63493;BME280;49638;47.526;10.028;2023-05-24T15:16:25;91756.56;;;13.46;86.85
63493;BME280;49638;47.526;10.028;2023-05-24T15:19:26;91755.81;;;13.56;86.62
63493;BME280;49638;47.526;10.028;2023-05-24T15:22:26;91758.69;;;13.49;86.15
63493;BME280;49638;47.526;10.028;2023-05-24T15:25:27;91759.97;;;13.37;85.60
63493;BME280;49638;47.526;10.028;2023-05-24T15:28:27;91769.22;;;13.34;85.53
63493;BME280;49638;47.526;10.028;2023-05-24T15:31:27;91764.97;;;13.28;84.92
63493;BME280;49638;47.526;10.028;2023-05-24T15:34:27;91776.28;;;13.18;85.12
63493;BME280;49638;47.526;10.028;2023-05-24T15:37:28;91775.72;;;13.11;85.04
63493;BME280;49638;47.526;10.028;2023-05-24T15:40:28;91757.56;;;12.93;84.93
63493;BME280;49638;47.526;10.028;2023-05-24T15:43:28;91753.25;;;12.82;85.37
63493;BME280;49638;47.526;10.028;2023-05-24T15:46:28;91751.91;;;12.79;86.00
63493;BME280;49638;47.526;10.028;2023-05-24T15:49:29;91749.47;;;12.72;86.02
63493;BME280;49638;47.526;10.028;2023-05-24T15:52:30;91771.47;;;12.73;86.55
63493;BME280;49638;47.526;10.028;2023-05-24T15:55:30;91771.16;;;12.64;86.58
63493;BME280;49638;47.526;10.028;2023-05-24T15:58:32;91761.28;;;12.54;86.79